sensor_id;sensor_type;location;lat;lon;timestamp;P1;durP1;ratioP1;P2;durP2;ratioP2
73170;SDS011;61381;50.118;19.962;2022-08-19T00:03:09;19.60;;;12.70;;
73170;SDS011;61381;50.118;19.962;2022-08-19T00:08:09;19.02;;;11.65;;
73170;SDS011;61381;50.118;19.962;2022-08-19T00:13:10;16.85;;;12.32;;
73170;SDS011;61381;50.118;19.962;2022-08-19T00:18:11;19.95;;;12.85;;
73170;SDS011;61381;50.118;19.962;2022-08-19T00:23:11;18.50;;;13.38;;
73170;SDS011;61381;50.118;19.962;2022-08-19T00:28:12;18.48;;;12.95;;
73170;SDS011;61381;50.118;19.962;2022-08-19T00:33:12;17.63;;;12.85;;
73170;SDS011;61381;50.118;19.962;2022-08-19T00:38:19;17.70;;;12.65;;
73170;SDS011;61381;50.118;19.962;2022-08-19T00:43:21;20.48;;;13.23;;
73170;SDS011;61381;50.118;19.962;2022-08-19T00:48:24;18.80;;;12.98;;
73170;SDS011;61381;50.118;19.962;2022-08-19T00:53:26;19.40;;;12.60;;
73170;SDS011;61381;50.118;19.962;2022-08-19T00:58:30;18.70;;;12.50;;
73170;SDS011;61381;50.118;19.962;2022-08-19T01:03:33;18.05;;;12.98;;
73170;SDS011;61381;50.118;19.962;2022-08-19T01:08:34;19.02;;;13.18;;
73170;SDS011;61381;50.118;19.962;2022-08-19T01:13:42;17.77;;;11.82;;
73170;SDS011;61381;50.118;19.962;2022-08-19T01:18:43;20.38;;;13.27;;
73170;SDS011;61381;50.118;19.962;2022-08-19T01:23:44;18.13;;;12.93;;
73170;SDS011;61381;50.118;19.962;2022-08-19T01:28:46;18.45;;;12.35;;
73170;SDS011;61381;50.118;19.962;2022-08-19T01:33:48;19.38;;;12.95;;
73170;SDS011;61381;50.118;19.962;2022-08-19T01:38:56;18.92;;;12.93;;
73170;SDS011;61381;50.118;19.962;2022-08-19T01:43:58;17.35;;;12.13;;
73170;SDS011;61381;50.118;19.962;2022-08-19T01:49:00;19.90;;;13.13;;
73170;SDS011;61381;50.118;19.962;2022-08-19T01:54:02;23.20;;;13.10;;
73170;SDS011;61381;50.118;19.962;2022-08-19T01:59:04;18.48;;;12.98;;
73170;SDS011;61381;50.118;19.962;2022-08-19T02:04:11;20.55;;;12.88;;
73170;SDS011;61381;50.118;19.962;2022-08-19T02:09:12;16.67;;;12.23;;
73170;SDS011;61381;50.118;19.962;2022-08-19T02:14:12;20.65;;;12.80;;
73170;SDS011;61381;50.118;19.962;2022-08-19T02:19:13;18.95;;;12.90;;
73170;SDS011;61381;50.118;19.962;2022-08-19T02:24:13;18.20;;;13.07;;
73170;SDS011;61381;50.118;19.962;2022-08-19T02:29:14;19.48;;;13.10;;
73170;SDS011;61381;50.118;19.962;2022-08-19T02:34:15;20.00;;;12.82;;
73170;SDS011;61381;50.118;19.962;2022-08-19T02:39:23;19.00;;;12.80;;
73170;SDS011;61381;50.118;19.962;2022-08-19T02:44:23;19.40;;;12.40;;
73170;SDS011;61381;50.118;19.962;2022-08-19T02:49:24;16.48;;;12.20;;
73170;SDS011;61381;50.118;19.962;2022-08-19T02:54:24;20.98;;;13.00;;
73170;SDS011;61381;50.118;19.962;2022-08-19T02:59:25;18.77;;;13.95;;
73170;SDS011;61381;50.118;19.962;2022-08-19T03:04:26;21.27;;;13.63;;
73170;SDS011;61381;50.118;19.962;2022-08-19T03:09:26;21.15;;;13.95;;
73170;SDS011;61381;50.118;19.962;2022-08-19T03:14:27;19.85;;;13.57;;
73170;SDS011;61381;50.118;19.962;2022-08-19T03:19:31;23.48;;;15.30;;
73170;SDS011;61381;50.118;19.962;2022-08-19T03:24:32;21.88;;;14.52;;
73170;SDS011;61381;50.118;19.962;2022-08-19T03:29:33;24.13;;;15.13;;
73170;SDS011;61381;50.118;19.962;2022-08-19T03:34:44;23.10;;;14.60;;
73170;SDS011;61381;50.118;19.962;2022-08-19T03:39:51;22.83;;;13.95;;
73170;SDS011;61381;50.118;19.962;2022-08-19T03:44:52;20.30;;;14.45;;
73170;SDS011;61381;50.118;19.962;2022-08-19T03:49:52;19.90;;;13.43;;
73170;SDS011;61381;50.118;19.962;2022-08-19T03:54:53;21.27;;;14.15;;
73170;SDS011;61381;50.118;19.962;2022-08-19T03:59:53;22.00;;;14.02;;
73170;SDS011;61381;50.118;19.962;2022-08-19T04:05:01;21.10;;;14.63;;
73170;SDS011;61381;50.118;19.962;2022-08-19T04:10:03;19.52;;;13.45;;
73170;SDS011;61381;50.118;19.962;2022-08-19T04:15:04;18.80;;;13.27;;
73170;SDS011;61381;50.118;19.962;2022-08-19T04:20:05;20.73;;;13.43;;
73170;SDS011;61381;50.118;19.962;2022-08-19T04:25:06;19.85;;;12.77;;
73170;SDS011;61381;50.118;19.962;2022-08-19T04:30:14;18.85;;;13.02;;
73170;SDS011;61381;50.118;19.962;2022-08-19T04:35:15;20.27;;;12.75;;
73170;SDS011;61381;50.118;19.962;2022-08-19T04:45:52;17.17;;;12.18;;
73170;SDS011;61381;50.118;19.962;2022-08-19T04:51:00;13.70;;;10.43;;
73170;SDS011;61381;50.118;19.962;2022-08-19T04:56:04;14.93;;;10.93;;
73170;SDS011;61381;50.118;19.962;2022-08-19T05:01:07;13.07;;;9.77;;
73170;SDS011;61381;50.118;19.962;2022-08-19T05:06:09;11.18;;;9.55;;
73170;SDS011;61381;50.118;19.962;2022-08-19T05:16:18;12.10;;;9.93;;
73170;SDS011;61381;50.118;19.962;2022-08-19T05:21:21;13.30;;;10.55;;
73170;SDS011;61381;50.118;19.962;2022-08-19T05:26:22;14.50;;;10.13;;
73170;SDS011;61381;50.118;19.962;2022-08-19T05:31:23;11.77;;;9.52;;
73170;SDS011;61381;50.118;19.962;2022-08-19T05:36:24;15.07;;;10.67;;
73170;SDS011;61381;50.118;19.962;2022-08-19T05:41:33;12.95;;;10.07;;
73170;SDS011;61381;50.118;19.962;2022-08-19T05:46:34;13.00;;;10.45;;
73170;SDS011;61381;50.118;19.962;2022-08-19T05:51:35;14.82;;;10.90;;
73170;SDS011;61381;50.118;19.962;2022-08-19T05:56:36;14.10;;;10.35;;
73170;SDS011;61381;50.118;19.962;2022-08-19T06:01:38;12.70;;;9.20;;
73170;SDS011;61381;50.118;19.962;2022-08-19T06:06:43;11.65;;;9.85;;
73170;SDS011;61381;50.118;19.962;2022-08-19T06:11:46;12.48;;;10.07;;
73170;SDS011;61381;50.118;19.962;2022-08-19T06:16:55;14.82;;;10.52;;
73170;SDS011;61381;50.118;19.962;2022-08-19T06:21:58;15.07;;;11.27;;
73170;SDS011;61381;50.118;19.962;2022-08-19T06:27:06;14.77;;;10.35;;
73170;SDS011;61381;50.118;19.962;2022-08-19T06:32:07;16.65;;;10.80;;
73170;SDS011;61381;50.118;19.962;2022-08-19T06:37:07;16.42;;;10.10;;
73170;SDS011;61381;50.118;19.962;2022-08-19T06:42:08;14.70;;;10.35;;
73170;SDS011;61381;50.118;19.962;2022-08-19T06:47:11;12.45;;;9.82;;
73170;SDS011;61381;50.118;19.962;2022-08-19T06:52:21;12.38;;;9.30;;
73170;SDS011;61381;50.118;19.962;2022-08-19T06:57:22;11.40;;;8.93;;
73170;SDS011;61381;50.118;19.962;2022-08-19T07:02:23;13.70;;;9.68;;
73170;SDS011;61381;50.118;19.962;2022-08-19T07:07:24;16.30;;;9.25;;
73170;SDS011;61381;50.118;19.962;2022-08-19T07:12:25;14.77;;;9.57;;
73170;SDS011;61381;50.118;19.962;2022-08-19T07:17:30;11.30;;;8.68;;
73170;SDS011;61381;50.118;19.962;2022-08-19T07:22:31;11.15;;;8.93;;
73170;SDS011;61381;50.118;19.962;2022-08-19T07:27:31;11.20;;;8.50;;
73170;SDS011;61381;50.118;19.962;2022-08-19T07:32:39;12.15;;;9.32;;
73170;SDS011;61381;50.118;19.962;2022-08-19T07:37:40;10.50;;;8.82;;
73170;SDS011;61381;50.118;19.962;2022-08-19T07:42:41;15.50;;;9.40;;
73170;SDS011;61381;50.118;19.962;2022-08-19T07:47:41;13.05;;;9.63;;
73170;SDS011;61381;50.118;19.962;2022-08-19T07:52:42;19.45;;;9.40;;
73170;SDS011;61381;50.118;19.962;2022-08-19T07:57:42;13.82;;;10.52;;
73170;SDS011;61381;50.118;19.962;2022-08-19T08:02:43;17.55;;;10.75;;
73170;SDS011;61381;50.118;19.962;2022-08-19T08:07:44;13.13;;;9.52;;
73170;SDS011;61381;50.118;19.962;2022-08-19T08:12:51;16.30;;;9.88;;
73170;SDS011;61381;50.118;19.962;2022-08-19T08:17:52;12.95;;;9.00;;
73170;SDS011;61381;50.118;19.962;2022-08-19T08:22:53;13.90;;;9.98;;
73170;SDS011;61381;50.118;19.962;2022-08-19T08:27:54;12.45;;;9.98;;
73170;SDS011;61381;50.118;19.962;2022-08-19T08:32:55;12.95;;;10.13;;
73170;SDS011;61381;50.118;19.962;2022-08-19T08:37:55;18.30;;;10.93;;
73170;SDS011;61381;50.118;19.962;2022-08-19T08:54:06;18.30;;;10.73;;
73170;SDS011;61381;50.118;19.962;2022-08-19T08:59:21;22.10;;;11.95;;
73170;SDS011;61381;50.118;19.962;2022-08-19T09:04:26;18.30;;;10.63;;
73170;SDS011;61381;50.118;19.962;2022-08-19T09:09:35;16.40;;;9.60;;
73170;SDS011;61381;50.118;19.962;2022-08-19T09:14:44;16.02;;;9.88;;
73170;SDS011;61381;50.118;19.962;2022-08-19T09:19:55;18.40;;;9.70;;
73170;SDS011;61381;50.118;19.962;2022-08-19T09:25:03;16.38;;;9.52;;
73170;SDS011;61381;50.118;19.962;2022-08-19T09:30:05;21.13;;;10.07;;
73170;SDS011;61381;50.118;19.962;2022-08-19T09:35:07;13.95;;;9.90;;
73170;SDS011;61381;50.118;19.962;2022-08-19T09:40:09;17.42;;;10.70;;
73170;SDS011;61381;50.118;19.962;2022-08-19T09:45:11;18.10;;;10.27;;
73170;SDS011;61381;50.118;19.962;2022-08-19T09:50:12;18.08;;;10.07;;
73170;SDS011;61381;50.118;19.962;2022-08-19T09:55:12;21.67;;;10.43;;
73170;SDS011;61381;50.118;19.962;2022-08-19T10:00:13;21.73;;;10.55;;
73170;SDS011;61381;50.118;19.962;2022-08-19T10:05:14;22.67;;;10.32;;
73170;SDS011;61381;50.118;19.962;2022-08-19T10:10:15;17.40;;;9.77;;
73170;SDS011;61381;50.118;19.962;2022-08-19T10:15:15;16.88;;;9.93;;
73170;SDS011;61381;50.118;19.962;2022-08-19T10:20:16;14.55;;;9.05;;
73170;SDS011;61381;50.118;19.962;2022-08-19T10:25:24;21.75;;;8.85;;
73170;SDS011;61381;50.118;19.962;2022-08-19T10:30:32;14.38;;;8.35;;
73170;SDS011;61381;50.118;19.962;2022-08-19T10:35:33;12.23;;;8.45;;
73170;SDS011;61381;50.118;19.962;2022-08-19T10:40:34;16.23;;;8.75;;
73170;SDS011;61381;50.118;19.962;2022-08-19T10:45:34;14.20;;;8.82;;
73170;SDS011;61381;50.118;19.962;2022-08-19T10:50:36;15.10;;;8.50;;
73170;SDS011;61381;50.118;19.962;2022-08-19T10:55:36;10.30;;;7.75;;
73170;SDS011;61381;50.118;19.962;2022-08-19T11:00:37;12.02;;;7.82;;
73170;SDS011;61381;50.118;19.962;2022-08-19T11:05:38;12.48;;;8.18;;
73170;SDS011;61381;50.118;19.962;2022-08-19T11:10:41;11.20;;;7.80;;
73170;SDS011;61381;50.118;19.962;2022-08-19T11:15:42;9.52;;;7.32;;
73170;SDS011;61381;50.118;19.962;2022-08-19T11:20:43;8.77;;;7.32;;
73170;SDS011;61381;50.118;19.962;2022-08-19T11:25:43;10.15;;;7.22;;
73170;SDS011;61381;50.118;19.962;2022-08-19T11:30:51;11.60;;;7.60;;
73170;SDS011;61381;50.118;19.962;2022-08-19T11:35:52;8.30;;;7.38;;
73170;SDS011;61381;50.118;19.962;2022-08-19T11:40:56;11.90;;;7.72;;
73170;SDS011;61381;50.118;19.962;2022-08-19T11:46:07;10.20;;;7.93;;
73170;SDS011;61381;50.118;19.962;2022-08-19T11:51:13;11.32;;;7.85;;
73170;SDS011;61381;50.118;19.962;2022-08-19T11:56:17;11.15;;;7.57;;
73170;SDS011;61381;50.118;19.962;2022-08-19T12:01:19;11.32;;;7.13;;
73170;SDS011;61381;50.118;19.962;2022-08-19T12:06:22;12.73;;;7.80;;
73170;SDS011;61381;50.118;19.962;2022-08-19T12:11:26;9.38;;;7.40;;
73170;SDS011;61381;50.118;19.962;2022-08-19T12:16:33;7.90;;;7.00;;
73170;SDS011;61381;50.118;19.962;2022-08-19T12:21:34;7.90;;;7.10;;
73170;SDS011;61381;50.118;19.962;2022-08-19T12:26:35;8.82;;;6.90;;
73170;SDS011;61381;50.118;19.962;2022-08-19T12:31:36;9.63;;;6.65;;
73170;SDS011;61381;50.118;19.962;2022-08-19T12:36:36;7.63;;;6.57;;
73170;SDS011;61381;50.118;19.962;2022-08-19T12:41:37;8.00;;;6.38;;
73170;SDS011;61381;50.118;19.962;2022-08-19T12:46:37;13.73;;;7.20;;
73170;SDS011;61381;50.118;19.962;2022-08-19T12:51:38;8.70;;;6.90;;
73170;SDS011;61381;50.118;19.962;2022-08-19T12:56:39;10.15;;;6.70;;
73170;SDS011;61381;50.118;19.962;2022-08-19T13:01:39;7.07;;;6.15;;
73170;SDS011;61381;50.118;19.962;2022-08-19T13:06:40;7.07;;;6.00;;
73170;SDS011;61381;50.118;19.962;2022-08-19T13:11:40;8.20;;;6.05;;
73170;SDS011;61381;50.118;19.962;2022-08-19T13:16:48;7.40;;;6.55;;
73170;SDS011;61381;50.118;19.962;2022-08-19T13:21:49;7.72;;;6.20;;
73170;SDS011;61381;50.118;19.962;2022-08-19T13:26:51;7.50;;;6.07;;
73170;SDS011;61381;50.118;19.962;2022-08-19T13:31:51;9.00;;;5.55;;
73170;SDS011;61381;50.118;19.962;2022-08-19T13:36:52;8.05;;;6.30;;
73170;SDS011;61381;50.118;19.962;2022-08-19T13:41:53;10.10;;;7.10;;
73170;SDS011;61381;50.118;19.962;2022-08-19T13:46:54;9.80;;;5.95;;
73170;SDS011;61381;50.118;19.962;2022-08-19T13:51:55;8.05;;;5.93;;
73170;SDS011;61381;50.118;19.962;2022-08-19T13:56:56;7.97;;;6.35;;
73170;SDS011;61381;50.118;19.962;2022-08-19T14:01:57;6.95;;;5.90;;
73170;SDS011;61381;50.118;19.962;2022-08-19T14:06:59;11.73;;;7.22;;
73170;SDS011;61381;50.118;19.962;2022-08-19T14:11:59;10.07;;;6.38;;
73170;SDS011;61381;50.118;19.962;2022-08-19T14:17:07;10.18;;;6.38;;
73170;SDS011;61381;50.118;19.962;2022-08-19T14:22:08;7.43;;;6.53;;
73170;SDS011;61381;50.118;19.962;2022-08-19T14:27:09;15.27;;;6.95;;
73170;SDS011;61381;50.118;19.962;2022-08-19T14:32:09;7.70;;;5.65;;
73170;SDS011;61381;50.118;19.962;2022-08-19T14:37:10;12.55;;;6.40;;
73170;SDS011;61381;50.118;19.962;2022-08-19T14:42:10;11.05;;;5.95;;
73170;SDS011;61381;50.118;19.962;2022-08-19T14:47:12;9.13;;;5.75;;
73170;SDS011;61381;50.118;19.962;2022-08-19T14:52:12;6.35;;;5.70;;
73170;SDS011;61381;50.118;19.962;2022-08-19T14:57:13;7.38;;;5.50;;
73170;SDS011;61381;50.118;19.962;2022-08-19T15:02:15;7.88;;;5.68;;
73170;SDS011;61381;50.118;19.962;2022-08-19T15:07:16;7.97;;;5.95;;
73170;SDS011;61381;50.118;19.962;2022-08-19T15:12:17;8.93;;;6.38;;
73170;SDS011;61381;50.118;19.962;2022-08-19T15:17:23;7.20;;;6.50;;
73170;SDS011;61381;50.118;19.962;2022-08-19T15:22:24;11.30;;;7.30;;
73170;SDS011;61381;50.118;19.962;2022-08-19T15:27:25;8.95;;;6.93;;
73170;SDS011;61381;50.118;19.962;2022-08-19T15:32:25;8.52;;;7.10;;
73170;SDS011;61381;50.118;19.962;2022-08-19T15:37:26;9.60;;;6.75;;
73170;SDS011;61381;50.118;19.962;2022-08-19T15:42:26;8.90;;;6.95;;
73170;SDS011;61381;50.118;19.962;2022-08-19T15:47:30;8.73;;;7.55;;
73170;SDS011;61381;50.118;19.962;2022-08-19T15:52:31;9.68;;;7.57;;
73170;SDS011;61381;50.118;19.962;2022-08-19T15:57:32;10.65;;;7.25;;
73170;SDS011;61381;50.118;19.962;2022-08-19T16:02:33;13.02;;;7.50;;
73170;SDS011;61381;50.118;19.962;2022-08-19T16:07:34;8.85;;;7.10;;
73170;SDS011;61381;50.118;19.962;2022-08-19T16:12:34;10.30;;;7.97;;
73170;SDS011;61381;50.118;19.962;2022-08-19T16:17:42;9.70;;;7.13;;
73170;SDS011;61381;50.118;19.962;2022-08-19T16:22:42;8.40;;;7.45;;
73170;SDS011;61381;50.118;19.962;2022-08-19T16:27:43;10.75;;;7.32;;
73170;SDS011;61381;50.118;19.962;2022-08-19T16:32:44;9.63;;;7.43;;
73170;SDS011;61381;50.118;19.962;2022-08-19T16:37:44;8.43;;;7.35;;
73170;SDS011;61381;50.118;19.962;2022-08-19T16:42:52;10.43;;;8.18;;
73170;SDS011;61381;50.118;19.962;2022-08-19T16:47:52;10.90;;;7.80;;
73170;SDS011;61381;50.118;19.962;2022-08-19T16:52:53;10.00;;;7.75;;
73170;SDS011;61381;50.118;19.962;2022-08-19T16:57:54;8.65;;;7.35;;
73170;SDS011;61381;50.118;19.962;2022-08-19T17:02:54;9.10;;;7.43;;
73170;SDS011;61381;50.118;19.962;2022-08-19T17:07:55;11.18;;;7.18;;
73170;SDS011;61381;50.118;19.962;2022-08-19T17:12:55;9.93;;;7.70;;
73170;SDS011;61381;50.118;19.962;2022-08-19T17:18:00;10.90;;;8.27;;
73170;SDS011;61381;50.118;19.962;2022-08-19T17:23:02;11.35;;;7.65;;
73170;SDS011;61381;50.118;19.962;2022-08-19T17:28:11;12.38;;;7.72;;
73170;SDS011;61381;50.118;19.962;2022-08-19T17:33:24;9.52;;;7.85;;
73170;SDS011;61381;50.118;19.962;2022-08-19T17:38:25;11.38;;;8.35;;
73170;SDS011;61381;50.118;19.962;2022-08-19T17:43:26;10.95;;;8.27;;
73170;SDS011;61381;50.118;19.962;2022-08-19T17:48:26;11.88;;;8.60;;
73170;SDS011;61381;50.118;19.962;2022-08-19T17:53:28;11.25;;;8.90;;
73170;SDS011;61381;50.118;19.962;2022-08-19T17:58:28;13.63;;;8.65;;
73170;SDS011;61381;50.118;19.962;2022-08-19T18:03:29;12.40;;;8.35;;
73170;SDS011;61381;50.118;19.962;2022-08-19T18:08:30;12.20;;;8.57;;
73170;SDS011;61381;50.118;19.962;2022-08-19T18:13:31;10.98;;;8.30;;
73170;SDS011;61381;50.118;19.962;2022-08-19T18:18:31;12.32;;;8.95;;
73170;SDS011;61381;50.118;19.962;2022-08-19T18:23:32;13.68;;;8.73;;
73170;SDS011;61381;50.118;19.962;2022-08-19T18:28:34;11.45;;;8.63;;
73170;SDS011;61381;50.118;19.962;2022-08-19T18:33:34;14.23;;;8.93;;
73170;SDS011;61381;50.118;19.962;2022-08-19T18:38:35;11.90;;;8.57;;
73170;SDS011;61381;50.118;19.962;2022-08-19T18:43:36;11.23;;;8.30;;
73170;SDS011;61381;50.118;19.962;2022-08-19T18:48:36;10.95;;;8.35;;
73170;SDS011;61381;50.118;19.962;2022-08-19T18:53:38;11.63;;;8.27;;
73170;SDS011;61381;50.118;19.962;2022-08-19T18:58:41;10.57;;;8.15;;
73170;SDS011;61381;50.118;19.962;2022-08-19T19:03:43;18.40;;;8.45;;
73170;SDS011;61381;50.118;19.962;2022-08-19T19:08:51;15.75;;;8.27;;
73170;SDS011;61381;50.118;19.962;2022-08-19T19:13:53;14.75;;;8.95;;
73170;SDS011;61381;50.118;19.962;2022-08-19T19:18:54;14.65;;;6.75;;
73170;SDS011;61381;50.118;19.962;2022-08-19T19:23:55;18.60;;;8.30;;
73170;SDS011;61381;50.118;19.962;2022-08-19T19:28:55;12.80;;;7.90;;
73170;SDS011;61381;50.118;19.962;2022-08-19T19:33:56;14.40;;;6.97;;
73170;SDS011;61381;50.118;19.962;2022-08-19T19:38:56;13.70;;;7.50;;
73170;SDS011;61381;50.118;19.962;2022-08-19T19:43:57;14.43;;;7.60;;
73170;SDS011;61381;50.118;19.962;2022-08-19T19:48:59;14.02;;;8.18;;
73170;SDS011;61381;50.118;19.962;2022-08-19T19:54:00;11.27;;;7.68;;
73170;SDS011;61381;50.118;19.962;2022-08-19T19:59:01;11.80;;;6.63;;
73170;SDS011;61381;50.118;19.962;2022-08-19T20:04:01;9.77;;;6.10;;
73170;SDS011;61381;50.118;19.962;2022-08-19T20:09:02;11.90;;;6.70;;
73170;SDS011;61381;50.118;19.962;2022-08-19T20:14:04;11.45;;;6.47;;
73170;SDS011;61381;50.118;19.962;2022-08-19T20:19:08;9.00;;;5.55;;
73170;SDS011;61381;50.118;19.962;2022-08-19T20:24:11;8.77;;;5.85;;
73170;SDS011;61381;50.118;19.962;2022-08-19T20:29:18;13.40;;;6.97;;
73170;SDS011;61381;50.118;19.962;2022-08-19T20:34:20;16.02;;;9.00;;
73170;SDS011;61381;50.118;19.962;2022-08-19T20:39:20;12.30;;;7.88;;
73170;SDS011;61381;50.118;19.962;2022-08-19T20:44:21;10.77;;;7.20;;
73170;SDS011;61381;50.118;19.962;2022-08-19T20:49:22;12.05;;;8.02;;
73170;SDS011;61381;50.118;19.962;2022-08-19T20:54:23;13.27;;;7.25;;
73170;SDS011;61381;50.118;19.962;2022-08-19T20:59:24;10.93;;;7.00;;
73170;SDS011;61381;50.118;19.962;2022-08-19T21:04:25;13.52;;;7.10;;
73170;SDS011;61381;50.118;19.962;2022-08-19T21:09:25;12.10;;;7.55;;
73170;SDS011;61381;50.118;19.962;2022-08-19T21:14:26;12.80;;;6.32;;
73170;SDS011;61381;50.118;19.962;2022-08-19T21:19:26;13.57;;;6.68;;
73170;SDS011;61381;50.118;19.962;2022-08-19T21:24:27;15.75;;;6.93;;
73170;SDS011;61381;50.118;19.962;2022-08-19T21:29:28;10.88;;;6.78;;
73170;SDS011;61381;50.118;19.962;2022-08-19T21:34:28;14.88;;;8.02;;
73170;SDS011;61381;50.118;19.962;2022-08-19T21:39:29;10.75;;;7.25;;
73170;SDS011;61381;50.118;19.962;2022-08-19T21:44:30;13.52;;;7.53;;
73170;SDS011;61381;50.118;19.962;2022-08-19T21:49:30;16.63;;;7.30;;
73170;SDS011;61381;50.118;19.962;2022-08-19T21:54:32;14.38;;;7.15;;
73170;SDS011;61381;50.118;19.962;2022-08-19T21:59:33;19.52;;;7.90;;
73170;SDS011;61381;50.118;19.962;2022-08-19T22:04:33;17.45;;;8.73;;
73170;SDS011;61381;50.118;19.962;2022-08-19T22:09:34;18.15;;;9.40;;
73170;SDS011;61381;50.118;19.962;2022-08-19T22:14:37;14.05;;;8.48;;
73170;SDS011;61381;50.118;19.962;2022-08-19T22:19:38;15.15;;;9.23;;
73170;SDS011;61381;50.118;19.962;2022-08-19T22:24:39;18.48;;;9.48;;
73170;SDS011;61381;50.118;19.962;2022-08-19T22:29:40;20.42;;;9.68;;
73170;SDS011;61381;50.118;19.962;2022-08-19T22:34:40;17.88;;;9.73;;
73170;SDS011;61381;50.118;19.962;2022-08-19T22:39:41;18.83;;;10.00;;
73170;SDS011;61381;50.118;19.962;2022-08-19T22:44:41;17.58;;;9.98;;
73170;SDS011;61381;50.118;19.962;2022-08-19T22:49:42;18.25;;;9.77;;
73170;SDS011;61381;50.118;19.962;2022-08-19T22:54:44;18.90;;;10.25;;
73170;SDS011;61381;50.118;19.962;2022-08-19T22:59:50;17.45;;;9.07;;
73170;SDS011;61381;50.118;19.962;2022-08-19T23:04:52;15.13;;;9.07;;
73170;SDS011;61381;50.118;19.962;2022-08-19T23:09:53;14.95;;;8.88;;
73170;SDS011;61381;50.118;19.962;2022-08-19T23:14:53;19.40;;;9.30;;
73170;SDS011;61381;50.118;19.962;2022-08-19T23:19:54;15.40;;;9.02;;
73170;SDS011;61381;50.118;19.962;2022-08-19T23:24:59;16.90;;;8.90;;
73170;SDS011;61381;50.118;19.962;2022-08-19T23:30:01;14.35;;;7.93;;
73170;SDS011;61381;50.118;19.962;2022-08-19T23:35:02;15.02;;;8.30;;
73170;SDS011;61381;50.118;19.962;2022-08-19T23:40:04;15.60;;;9.45;;
73170;SDS011;61381;50.118;19.962;2022-08-19T23:45:06;15.15;;;8.88;;
73170;SDS011;61381;50.118;19.962;2022-08-19T23:50:08;20.17;;;9.75;;
73170;SDS011;61381;50.118;19.962;2022-08-19T23:55:09;17.02;;;9.07;;
